createdAt,value
2022-12-08T00:01:10.081Z,3.00
2022-12-08T00:03:38.496Z,3.00
2022-12-08T00:06:35.996Z,3.00
2022-12-08T00:09:21.243Z,2.90
2022-12-08T00:11:57.893Z,3.00
2022-12-08T00:14:29.998Z,2.90
2022-12-08T00:16:58.205Z,2.90
2022-12-08T00:19:25.881Z,2.90
2022-12-08T00:21:54.011Z,2.90
2022-12-08T00:24:21.667Z,2.90
2022-12-08T00:26:49.270Z,2.90
2022-12-08T00:29:17.643Z,2.90
2022-12-08T00:31:44.785Z,2.90
2022-12-08T00:34:13.623Z,2.90
2022-12-08T00:36:40.421Z,2.90
2022-12-08T00:39:07.688Z,2.90
2022-12-08T00:41:53.091Z,2.90
2022-12-08T00:44:19.736Z,2.90
2022-12-08T00:46:48.068Z,2.90
2022-12-08T00:49:16.572Z,2.90
2022-12-08T00:51:43.805Z,2.90
2022-12-08T00:54:11.539Z,2.90
2022-12-08T00:56:38.492Z,2.90
2022-12-08T00:59:07.370Z,3.00
2022-12-08T01:01:35.309Z,3.00
2022-12-08T01:04:11.086Z,3.00
2022-12-08T01:06:38.441Z,3.00
2022-12-08T01:09:07.625Z,3.10
2022-12-08T01:11:35.301Z,3.10
2022-12-08T01:14:02.633Z,3.10
2022-12-08T01:16:32.693Z,3.20
2022-12-08T01:19:00.754Z,3.20
2022-12-08T01:21:28.066Z,3.20
2022-12-08T01:23:56.114Z,3.30
2022-12-08T01:26:22.898Z,3.30
2022-12-08T01:28:50.453Z,3.30
2022-12-08T01:31:19.515Z,3.30
2022-12-08T01:33:47.970Z,3.40
2022-12-08T01:36:23.219Z,3.40
2022-12-08T01:38:51.149Z,3.40
2022-12-08T01:41:20.187Z,3.40
2022-12-08T01:44:01.196Z,3.40
2022-12-08T01:46:30.517Z,3.40
2022-12-08T01:49:19.759Z,3.40
2022-12-08T01:52:04.774Z,3.50
2022-12-08T01:54:36.644Z,3.50
2022-12-08T01:57:33.071Z,3.50
2022-12-08T02:00:11.458Z,3.50
2022-12-08T02:02:59.138Z,3.50
2022-12-08T02:05:29.085Z,3.50
2022-12-08T02:07:57.327Z,3.60
2022-12-08T02:10:28.191Z,3.50
2022-12-08T02:12:58.276Z,3.50
2022-12-08T02:15:40.287Z,3.50
2022-12-08T02:18:32.284Z,3.50
2022-12-08T02:21:23.512Z,3.50
2022-12-08T02:23:50.828Z,3.50
2022-12-08T02:26:51.230Z,3.50
2022-12-08T02:29:38.045Z,3.50
2022-12-08T02:32:11.208Z,3.50
2022-12-08T02:34:46.939Z,3.50
2022-12-08T02:37:20.348Z,3.50
2022-12-08T02:40:11.263Z,3.50
2022-12-08T02:42:42.298Z,3.50
2022-12-08T02:45:22.542Z,3.50
2022-12-08T02:47:50.909Z,3.50
2022-12-08T02:50:18.306Z,3.50
2022-12-08T02:52:47.322Z,3.40
2022-12-08T02:55:23.110Z,3.40
2022-12-08T02:58:22.294Z,3.50
2022-12-08T03:01:34.090Z,3.50
2022-12-08T03:04:41.655Z,3.50
2022-12-08T03:07:22.247Z,3.50
2022-12-08T03:10:00.937Z,3.50
2022-12-08T03:12:38.228Z,3.50
2022-12-08T03:15:12.658Z,3.50
2022-12-08T03:17:51.702Z,3.40
2022-12-08T03:20:21.699Z,3.40
2022-12-08T03:22:51.158Z,3.40
2022-12-08T03:25:22.318Z,3.50
2022-12-08T03:27:51.027Z,3.50
2022-12-08T03:30:18.021Z,3.50
2022-12-08T03:33:07.269Z,3.50
2022-12-08T03:35:36.730Z,3.50
2022-12-08T03:38:10.989Z,3.50
2022-12-08T03:40:38.688Z,3.60
2022-12-08T03:43:06.051Z,3.60
2022-12-08T03:45:32.653Z,3.50
2022-12-08T03:47:59.949Z,3.60
2022-12-08T03:50:26.729Z,3.50
2022-12-08T03:52:53.985Z,3.60
2022-12-08T03:55:21.408Z,3.60
2022-12-08T03:57:48.739Z,3.60
2022-12-08T04:00:16.790Z,3.60
2022-12-08T04:02:44.387Z,3.60
2022-12-08T04:05:11.026Z,3.60
2022-12-08T04:07:38.363Z,3.60
2022-12-08T04:10:05.981Z,3.60
2022-12-08T04:12:33.514Z,3.60
2022-12-08T04:15:00.164Z,3.60
2022-12-08T04:17:27.477Z,3.60
2022-12-08T04:19:54.097Z,3.60
2022-12-08T04:22:21.419Z,3.60
2022-12-08T04:24:48.145Z,3.60
2022-12-08T04:27:15.423Z,3.60
2022-12-08T04:29:42.073Z,3.60
2022-12-08T04:32:09.399Z,3.60
2022-12-08T04:34:35.992Z,3.60
2022-12-08T04:37:03.346Z,3.60
2022-12-08T04:39:29.970Z,3.60
2022-12-08T04:41:57.259Z,3.60
2022-12-08T04:44:23.848Z,3.60
2022-12-08T04:46:51.189Z,3.60
2022-12-08T04:49:17.850Z,3.60
2022-12-08T04:51:44.759Z,3.60
2022-12-08T04:54:12.069Z,3.60
2022-12-08T04:56:39.020Z,3.60
2022-12-08T04:59:05.632Z,3.60
2022-12-08T05:01:32.722Z,3.70
2022-12-08T05:04:00.086Z,3.70
2022-12-08T05:06:26.838Z,3.70
2022-12-08T05:08:54.128Z,3.70
2022-12-08T05:11:20.702Z,3.70
2022-12-08T05:13:48.191Z,3.70
2022-12-08T05:16:15.718Z,3.70
2022-12-08T05:18:43.696Z,3.70
2022-12-08T05:21:10.741Z,3.70
2022-12-08T05:23:38.081Z,3.70
2022-12-08T05:26:04.946Z,3.70
2022-12-08T05:28:41.176Z,3.70
2022-12-08T05:31:09.650Z,3.70
2022-12-08T05:33:36.325Z,3.70
2022-12-08T05:36:03.458Z,3.70
2022-12-08T05:38:30.811Z,3.70
2022-12-08T05:40:57.533Z,3.60
2022-12-08T05:43:24.885Z,3.60
2022-12-08T05:45:51.578Z,3.70
2022-12-08T05:48:18.867Z,3.70
2022-12-08T05:50:49.909Z,3.60
2022-12-08T05:53:18.670Z,3.60
2022-12-08T05:55:46.269Z,3.60
2022-12-08T05:58:19.622Z,3.60
2022-12-08T06:00:47.755Z,3.60
2022-12-08T06:03:16.378Z,3.50
2022-12-08T06:05:45.286Z,3.60
2022-12-08T06:08:13.081Z,3.60
2022-12-08T06:10:41.351Z,3.50
2022-12-08T06:13:08.961Z,3.50
2022-12-08T06:15:36.972Z,3.50
2022-12-08T06:18:04.948Z,3.50
2022-12-08T06:20:31.543Z,3.50
2022-12-08T06:22:58.876Z,3.50
2022-12-08T06:25:28.039Z,3.50
2022-12-08T06:28:13.185Z,3.50
2022-12-08T06:31:06.105Z,3.40
2022-12-08T06:33:59.161Z,3.40
2022-12-08T06:36:35.842Z,3.40
2022-12-08T06:39:03.250Z,3.40
2022-12-08T06:41:30.957Z,3.40
2022-12-08T06:46:56.632Z,3.40
2022-12-08T06:49:23.573Z,3.40
2022-12-08T06:51:51.474Z,3.40
2022-12-08T06:54:18.593Z,3.30
2022-12-08T06:56:46.249Z,3.30
2022-12-08T06:59:13.396Z,3.30
2022-12-08T07:01:40.950Z,3.30
2022-12-08T07:04:07.597Z,3.30
2022-12-08T07:06:34.835Z,3.30
2022-12-08T07:09:01.466Z,3.30
2022-12-08T07:11:28.734Z,3.20
2022-12-08T07:13:58.727Z,3.20
2022-12-08T07:16:26.057Z,3.20
2022-12-08T07:18:52.829Z,3.20
2022-12-08T07:21:20.176Z,3.20
2022-12-08T07:23:54.429Z,3.20
2022-12-08T07:26:25.146Z,3.20
2022-12-08T07:28:51.754Z,3.20
2022-12-08T07:31:21.990Z,3.20
2022-12-08T07:33:50.147Z,3.10
2022-12-08T07:36:17.544Z,3.10
2022-12-08T07:38:44.298Z,3.20
2022-12-08T07:41:16.139Z,3.10
2022-12-08T07:43:43.428Z,3.20
2022-12-08T07:46:19.826Z,3.20
2022-12-08T07:48:46.813Z,3.20
2022-12-08T07:51:16.053Z,3.10
2022-12-08T07:53:49.878Z,3.10
2022-12-08T07:56:21.013Z,3.10
2022-12-08T07:58:47.657Z,3.10
2022-12-08T08:01:23.039Z,3.10
2022-12-08T08:03:50.335Z,3.10
2022-12-08T08:06:17.321Z,3.10
2022-12-08T08:08:43.934Z,3.20
2022-12-08T08:11:17.449Z,3.20
2022-12-08T08:13:48.258Z,3.20
2022-12-08T08:16:15.808Z,3.20
2022-12-08T08:18:43.415Z,3.20
2022-12-08T08:23:57.704Z,3.30
2022-12-08T08:26:24.988Z,3.20
2022-12-08T08:28:51.590Z,3.30
2022-12-08T08:31:18.906Z,3.30
2022-12-08T08:33:45.580Z,3.30
2022-12-08T08:36:13.076Z,3.30
2022-12-08T08:38:39.999Z,3.40
2022-12-08T08:41:09.312Z,3.40
2022-12-08T08:43:38.421Z,3.40
2022-12-08T08:46:07.137Z,3.40
2022-12-08T08:48:34.336Z,3.40
2022-12-08T08:51:09.331Z,3.40
2022-12-08T08:53:36.653Z,3.40
2022-12-08T08:56:08.445Z,3.40
2022-12-08T08:58:35.044Z,3.40
2022-12-08T09:01:02.346Z,3.40
2022-12-08T09:03:29.109Z,3.40
2022-12-08T09:05:57.046Z,3.40
2022-12-08T09:08:24.444Z,3.40
2022-12-08T09:10:51.954Z,3.40
2022-12-08T09:13:18.734Z,3.40
2022-12-08T09:15:46.058Z,3.40
2022-12-08T09:18:12.909Z,3.40
2022-12-08T09:20:40.403Z,3.40
2022-12-08T09:23:07.081Z,3.40
2022-12-08T09:25:34.382Z,3.40
2022-12-08T09:28:01.003Z,3.50
2022-12-08T09:30:27.983Z,3.50
2022-12-08T09:32:54.675Z,3.50
2022-12-08T09:35:21.930Z,3.50
2022-12-08T09:37:48.544Z,3.50
2022-12-08T09:40:20.363Z,3.50
2022-12-08T09:43:12.106Z,3.50
2022-12-08T09:45:39.750Z,3.50
2022-12-08T09:48:12.887Z,3.50
2022-12-08T09:50:48.227Z,3.50
2022-12-08T09:53:21.180Z,3.60
2022-12-08T09:55:52.849Z,3.50
2022-12-08T09:58:32.144Z,3.60
2022-12-08T10:00:59.656Z,3.50
2022-12-08T10:03:30.780Z,3.50
2022-12-08T10:06:28.296Z,3.50
2022-12-08T10:08:57.705Z,3.60
2022-12-08T10:11:46.690Z,3.60
2022-12-08T10:14:36.465Z,3.60
2022-12-08T10:17:14.741Z,3.70
2022-12-08T10:19:42.924Z,3.80
2022-12-08T10:22:23.269Z,3.70
2022-12-08T10:25:00.033Z,3.80
2022-12-08T10:27:28.109Z,3.80
2022-12-08T10:29:54.753Z,3.90
2022-12-08T10:32:29.557Z,3.90
2022-12-08T10:35:05.017Z,4.00
2022-12-08T10:37:32.557Z,4.00
2022-12-08T10:40:09.843Z,4.00
2022-12-08T10:42:48.182Z,4.00
2022-12-08T10:45:26.982Z,4.00
2022-12-08T10:48:04.125Z,4.10
2022-12-08T10:50:33.939Z,4.10
2022-12-08T10:53:22.306Z,4.20
2022-12-08T10:56:04.936Z,4.30
2022-12-08T10:58:35.477Z,4.30
2022-12-08T11:01:10.158Z,4.40
2022-12-08T11:03:50.137Z,4.30
2022-12-08T11:06:22.508Z,4.30
2022-12-08T11:08:49.226Z,4.30
2022-12-08T11:11:17.044Z,4.30
2022-12-08T11:13:43.934Z,4.30
2022-12-08T11:16:16.262Z,4.30
2022-12-08T11:18:54.685Z,4.30
2022-12-08T11:21:34.492Z,4.20
2022-12-08T11:24:16.708Z,4.30
2022-12-08T11:26:52.339Z,4.20
2022-12-08T11:29:19.356Z,4.20
2022-12-08T11:31:53.559Z,4.20
2022-12-08T11:34:46.340Z,4.20
2022-12-08T11:37:24.256Z,4.20
2022-12-08T11:39:55.040Z,4.20
2022-12-08T11:42:30.877Z,4.20
2022-12-08T11:44:59.328Z,4.20
2022-12-08T11:47:35.601Z,4.30
2022-12-08T11:50:19.851Z,4.30
2022-12-08T11:52:50.293Z,4.30
2022-12-08T11:55:42.662Z,4.40
2022-12-08T11:58:23.000Z,4.50
2022-12-08T12:00:50.253Z,4.50
2022-12-08T12:03:25.140Z,4.50
2022-12-08T12:06:53.203Z,4.50
2022-12-08T12:09:30.269Z,4.40
2022-12-08T12:12:17.320Z,4.40
2022-12-08T12:15:11.297Z,4.30
2022-12-08T12:17:59.312Z,4.20
2022-12-08T12:20:38.321Z,4.20
2022-12-08T12:23:18.758Z,4.10
2022-12-08T12:25:58.554Z,4.10
2022-12-08T12:28:43.167Z,4.10
2022-12-08T12:31:18.584Z,4.10
2022-12-08T12:33:46.743Z,4.10
2022-12-08T12:36:15.122Z,4.10
2022-12-08T12:39:00.979Z,4.10
2022-12-08T12:41:46.162Z,4.10
2022-12-08T12:44:12.735Z,4.10
2022-12-08T12:46:53.340Z,4.10
2022-12-08T12:49:39.249Z,4.20
2022-12-08T12:52:32.131Z,4.20
2022-12-08T12:54:58.804Z,4.20
2022-12-08T12:57:37.483Z,4.30
2022-12-08T13:00:04.075Z,4.30
2022-12-08T13:02:32.452Z,4.20
2022-12-08T13:05:26.466Z,4.20
2022-12-08T13:08:07.940Z,4.20
2022-12-08T13:10:37.741Z,4.20
2022-12-08T13:13:18.746Z,4.10
2022-12-08T13:15:54.612Z,4.10
2022-12-08T13:18:36.528Z,4.10
2022-12-08T13:21:17.905Z,4.10
2022-12-08T13:24:04.749Z,4.10
2022-12-08T13:26:32.521Z,4.10
2022-12-08T13:28:59.185Z,4.10
2022-12-08T13:31:52.977Z,4.10
2022-12-08T13:34:47.861Z,4.10
2022-12-08T13:37:27.478Z,4.10
2022-12-08T13:40:12.602Z,4.10
2022-12-08T13:42:53.537Z,4.10
2022-12-08T13:46:04.370Z,4.10
2022-12-08T13:49:32.048Z,4.10
2022-12-08T13:57:22.127Z,4.00
2022-12-08T13:59:48.814Z,4.00
2022-12-08T14:02:35.979Z,4.00
2022-12-08T14:05:23.491Z,4.00
2022-12-08T14:07:56.312Z,4.00
2022-12-08T14:10:29.159Z,4.00
2022-12-08T14:13:01.272Z,4.00
2022-12-08T14:15:32.577Z,4.10
2022-12-08T14:18:03.007Z,4.10
2022-12-08T14:20:33.854Z,4.10
2022-12-08T14:23:09.917Z,4.10
2022-12-08T14:25:38.563Z,4.00
2022-12-08T14:28:05.973Z,4.00
2022-12-08T14:30:33.484Z,4.00
2022-12-08T14:33:05.040Z,4.00
2022-12-08T14:35:38.905Z,3.90
2022-12-08T14:38:18.061Z,3.90
2022-12-08T14:40:46.972Z,3.90
2022-12-08T14:43:20.352Z,3.90
2022-12-08T14:45:48.540Z,3.90
2022-12-08T14:48:23.651Z,3.90
2022-12-08T14:51:16.008Z,3.80
2022-12-08T14:54:08.445Z,3.80
2022-12-08T14:56:38.239Z,3.80
2022-12-08T14:59:14.660Z,3.90
2022-12-08T15:01:42.851Z,3.80
2022-12-08T15:04:24.489Z,3.80
2022-12-08T15:06:51.914Z,3.80
2022-12-08T15:09:31.532Z,3.80
2022-12-08T15:12:26.638Z,3.80
2022-12-08T15:15:14.439Z,3.70
2022-12-08T15:17:49.593Z,3.70
2022-12-08T15:20:28.819Z,3.70
2022-12-08T15:23:00.689Z,3.70
2022-12-08T15:25:27.237Z,3.70
2022-12-08T15:27:56.585Z,3.70
2022-12-08T15:30:26.175Z,3.70
2022-12-08T15:32:54.406Z,3.70
2022-12-08T15:35:21.318Z,3.70
2022-12-08T15:37:48.635Z,3.60
2022-12-08T15:40:18.754Z,3.60
2022-12-08T15:42:46.378Z,3.60
2022-12-08T15:45:17.083Z,3.50
2022-12-08T15:47:45.535Z,3.40
2022-12-08T15:50:21.480Z,3.40
2022-12-08T15:52:49.408Z,3.30
2022-12-08T15:55:19.742Z,3.30
2022-12-08T15:58:51.345Z,3.30
2022-12-08T16:00:55.828Z,3.20
2022-12-08T16:09:12.479Z,3.30
2022-12-08T16:12:08.952Z,3.30
2022-12-08T16:17:24.721Z,3.30
2022-12-08T16:19:51.963Z,3.30
2022-12-08T16:25:22.144Z,3.30
2022-12-08T16:28:36.979Z,3.30
2022-12-08T16:30:40.392Z,3.30
2022-12-08T16:33:07.834Z,3.30
2022-12-08T16:35:34.440Z,3.30
2022-12-08T16:38:01.081Z,3.30
2022-12-08T16:40:28.025Z,3.30
2022-12-08T16:42:55.129Z,3.20
2022-12-08T16:45:26.164Z,3.20
2022-12-08T16:47:59.104Z,3.20
2022-12-08T16:50:28.213Z,3.20
2022-12-08T16:53:04.464Z,3.20
2022-12-08T16:55:31.300Z,3.10
2022-12-08T16:57:58.100Z,3.20
2022-12-08T17:00:28.054Z,3.20
2022-12-08T17:02:55.479Z,3.20
2022-12-08T17:05:24.270Z,3.20
2022-12-08T17:07:52.818Z,3.20
2022-12-08T17:10:23.332Z,3.30
2022-12-08T17:12:51.038Z,3.20
2022-12-08T17:15:21.029Z,3.30
2022-12-08T17:17:48.530Z,3.30
2022-12-08T17:20:19.357Z,3.30
2022-12-08T17:22:46.914Z,3.30
2022-12-08T17:25:14.510Z,3.30
2022-12-08T17:27:41.687Z,3.30
2022-12-08T17:30:11.925Z,3.30
2022-12-08T17:32:39.115Z,3.30
2022-12-08T17:35:07.268Z,3.30
2022-12-08T17:37:34.747Z,3.30
2022-12-08T17:40:01.722Z,3.30
2022-12-08T17:42:28.377Z,3.30
2022-12-08T17:44:55.540Z,3.30
2022-12-08T17:47:22.552Z,3.30
2022-12-08T17:49:49.864Z,3.30
2022-12-08T17:52:16.532Z,3.30
2022-12-08T17:54:43.800Z,3.30
2022-12-08T17:57:10.408Z,3.30
2022-12-08T17:59:37.056Z,3.30
2022-12-08T18:02:04.229Z,3.30
2022-12-08T18:04:31.934Z,3.20
2022-12-08T18:07:00.613Z,3.20
2022-12-08T18:09:30.773Z,3.10
2022-12-08T18:11:57.487Z,3.10
2022-12-08T18:14:24.105Z,3.10
2022-12-08T18:16:50.880Z,3.00
2022-12-08T18:19:17.909Z,2.90
2022-12-08T18:21:44.565Z,2.90
2022-12-08T18:24:23.366Z,2.80
2022-12-08T18:26:52.104Z,2.60
2022-12-08T18:29:20.372Z,2.50
2022-12-08T18:31:47.348Z,2.50
2022-12-08T18:34:14.555Z,2.40
2022-12-08T18:36:41.310Z,2.30
2022-12-08T18:39:23.639Z,2.20
2022-12-08T18:41:51.388Z,2.00
2022-12-08T18:44:19.003Z,1.90
2022-12-08T18:46:45.603Z,1.80
2022-12-08T18:49:14.472Z,1.80
2022-12-08T18:51:41.844Z,1.70
2022-12-08T18:54:09.589Z,1.60
2022-12-08T18:56:36.863Z,1.50
2022-12-08T18:59:10.330Z,1.50
2022-12-08T19:01:38.675Z,1.40
2022-12-08T19:06:54.928Z,1.30
2022-12-08T19:09:22.890Z,1.20
2022-12-08T19:11:49.668Z,1.20
2022-12-08T19:14:20.091Z,1.20
2022-12-08T19:16:49.935Z,1.10
2022-12-08T19:19:17.289Z,1.10
2022-12-08T19:21:46.492Z,1.00
2022-12-08T19:24:14.126Z,1.00
2022-12-08T19:26:40.731Z,1.00
2022-12-08T19:29:08.269Z,0.90
2022-12-08T19:31:35.057Z,0.90
2022-12-08T19:34:02.573Z,0.90
2022-12-08T19:36:35.127Z,0.90
2022-12-08T19:39:21.432Z,0.90
2022-12-08T19:42:06.774Z,0.80
2022-12-08T19:44:52.722Z,0.80
2022-12-08T19:47:21.177Z,0.80
2022-12-08T19:49:48.644Z,0.90
2022-12-08T19:52:15.401Z,0.90
2022-12-08T19:54:42.352Z,0.90
2022-12-08T19:57:09.586Z,1.00
2022-12-08T19:59:36.198Z,1.10
2022-12-08T20:02:03.006Z,1.10
2022-12-08T20:04:30.080Z,1.10
2022-12-08T20:06:57.431Z,1.30
2022-12-08T20:09:24.814Z,1.30
2022-12-08T20:11:54.418Z,1.30
2022-12-08T20:14:22.937Z,1.30
2022-12-08T20:16:50.484Z,1.30
2022-12-08T20:19:17.956Z,1.40
2022-12-08T20:21:44.535Z,1.50
2022-12-08T20:24:11.245Z,1.50
2022-12-08T20:26:37.895Z,1.60
2022-12-08T20:29:05.289Z,1.70
2022-12-08T20:31:32.889Z,1.80
2022-12-08T20:34:01.102Z,1.90
2022-12-08T20:36:28.689Z,1.90
2022-12-08T20:38:56.282Z,1.90
2022-12-08T20:41:23.621Z,2.00
2022-12-08T20:43:51.028Z,2.00
2022-12-08T20:46:18.648Z,2.00
2022-12-08T20:48:45.497Z,2.10
2022-12-08T20:51:14.268Z,2.10
2022-12-08T20:53:41.301Z,2.10
2022-12-08T20:56:08.103Z,2.10
2022-12-08T20:58:34.764Z,2.20
2022-12-08T21:01:01.540Z,2.20
2022-12-08T21:03:28.747Z,2.20
2022-12-08T21:05:55.615Z,2.20
2022-12-08T21:08:25.445Z,2.20
2022-12-08T21:10:56.402Z,2.20
2022-12-08T21:13:23.598Z,2.20
2022-12-08T21:15:50.618Z,2.20
2022-12-08T21:18:17.938Z,2.20
2022-12-08T21:20:44.849Z,2.30
2022-12-08T21:23:11.792Z,2.30
2022-12-08T21:25:43.088Z,2.30
2022-12-08T21:28:10.628Z,2.30
2022-12-08T21:30:40.106Z,2.30
2022-12-08T21:33:07.283Z,2.30
2022-12-08T21:35:34.298Z,2.20
2022-12-08T21:38:01.314Z,2.20
2022-12-08T21:40:28.011Z,2.20
2022-12-08T21:42:55.128Z,2.10
2022-12-08T21:45:22.059Z,2.10
2022-12-08T21:47:50.699Z,2.10
2022-12-08T21:50:18.614Z,2.10
2022-12-08T21:52:48.009Z,2.10
2022-12-08T21:55:16.367Z,2.10
2022-12-08T21:57:43.181Z,2.00
2022-12-08T22:00:14.731Z,2.10
2022-12-08T22:02:41.817Z,2.10
2022-12-08T22:05:09.230Z,2.00
2022-12-08T22:07:39.036Z,2.10
2022-12-08T22:10:07.621Z,2.10
2022-12-08T22:12:36.222Z,2.10
2022-12-08T22:15:05.712Z,2.10
2022-12-08T22:17:37.160Z,2.10
2022-12-08T22:20:06.494Z,2.20
2022-12-08T22:22:35.082Z,2.20
2022-12-08T22:25:06.386Z,2.20
2022-12-08T22:27:34.330Z,2.20
2022-12-08T22:30:01.151Z,2.20
2022-12-08T22:32:28.639Z,2.20
2022-12-08T22:34:55.258Z,2.30
2022-12-08T22:37:22.648Z,2.20
2022-12-08T22:39:49.512Z,2.20
2022-12-08T22:42:16.642Z,2.30
2022-12-08T22:44:44.010Z,2.30
2022-12-08T22:47:10.848Z,2.30
2022-12-08T22:49:38.152Z,2.20
2022-12-08T22:52:05.142Z,2.20
2022-12-08T22:54:32.750Z,2.20
2022-12-08T22:56:59.682Z,2.20
2022-12-08T22:59:28.494Z,2.10
2022-12-08T23:01:55.094Z,2.10
2022-12-08T23:04:22.478Z,2.10
2022-12-08T23:06:49.323Z,2.10
2022-12-08T23:09:16.764Z,2.10
2022-12-08T23:11:44.239Z,2.10
2022-12-08T23:14:11.642Z,2.10
2022-12-08T23:16:38.493Z,2.10
2022-12-08T23:19:06.211Z,2.00
2022-12-08T23:21:33.030Z,2.00
2022-12-08T23:24:02.089Z,2.00
2022-12-08T23:26:31.660Z,2.00
2022-12-08T23:29:00.023Z,2.00
2022-12-08T23:31:27.568Z,1.90
2022-12-08T23:33:55.544Z,1.90
2022-12-08T23:36:25.814Z,1.90
2022-12-08T23:38:54.246Z,1.90
2022-12-08T23:41:21.521Z,1.90
2022-12-08T23:43:51.935Z,1.90
2022-12-08T23:46:20.978Z,1.80
2022-12-08T23:48:48.861Z,1.80
2022-12-08T23:51:16.352Z,1.70
2022-12-08T23:53:44.539Z,1.70
2022-12-08T23:56:13.995Z,1.70
2022-12-08T23:58:42.332Z,1.70
